sensor_id;sensor_type;location;lat;lon;timestamp;pressure;altitude;pressure_sealevel;temperature
71640;BMP280;60912;48.968;10.124;2023-11-21T00:01:00;95972.81;;;9.00
71640;BMP280;60912;48.968;10.124;2023-11-21T00:03:29;95972.06;;;9.00
71640;BMP280;60912;48.968;10.124;2023-11-21T00:05:54;95971.91;;;9.05
71640;BMP280;60912;48.968;10.124;2023-11-21T00:08:20;95961.31;;;9.09
71640;BMP280;60912;48.968;10.124;2023-11-21T00:10:45;95967.53;;;9.17
71640;BMP280;60912;48.968;10.124;2023-11-21T00:13:10;95955.63;;;9.22
71640;BMP280;60912;48.968;10.124;2023-11-21T00:15:37;95958.00;;;9.18
71640;BMP280;60912;48.968;10.124;2023-11-21T00:18:03;95957.44;;;9.20
71640;BMP280;60912;48.968;10.124;2023-11-21T00:20:28;95958.16;;;9.05
71640;BMP280;60912;48.968;10.124;2023-11-21T00:22:53;95948.06;;;9.00
71640;BMP280;60912;48.968;10.124;2023-11-21T00:25:19;95956.16;;;8.98
71640;BMP280;60912;48.968;10.124;2023-11-21T00:27:45;95948.97;;;9.03
71640;BMP280;60912;48.968;10.124;2023-11-21T00:30:11;95942.41;;;9.06
71640;BMP280;60912;48.968;10.124;2023-11-21T00:32:37;95942.94;;;9.04
71640;BMP280;60912;48.968;10.124;2023-11-21T00:35:03;95949.00;;;9.10
71640;BMP280;60912;48.968;10.124;2023-11-21T00:37:28;95949.00;;;9.10
71640;BMP280;60912;48.968;10.124;2023-11-21T00:39:53;95942.59;;;9.08
71640;BMP280;60912;48.968;10.124;2023-11-21T00:42:19;95941.88;;;9.07
71640;BMP280;60912;48.968;10.124;2023-11-21T00:44:44;95942.06;;;9.17
71640;BMP280;60912;48.968;10.124;2023-11-21T00:47:09;95938.03;;;9.25
71640;BMP280;60912;48.968;10.124;2023-11-21T00:49:35;95943.00;;;9.27
71640;BMP280;60912;48.968;10.124;2023-11-21T00:52:00;95940.59;;;9.31
71640;BMP280;60912;48.968;10.124;2023-11-21T00:54:27;95939.84;;;9.38
71640;BMP280;60912;48.968;10.124;2023-11-21T00:56:52;95941.88;;;9.37
71640;BMP280;60912;48.968;10.124;2023-11-21T00:59:18;95942.47;;;9.36
71640;BMP280;60912;48.968;10.124;2023-11-21T01:01:43;95950.50;;;9.42
71640;BMP280;60912;48.968;10.124;2023-11-21T01:04:09;95949.22;;;9.43
71640;BMP280;60912;48.968;10.124;2023-11-21T01:06:34;95943.94;;;9.45
71640;BMP280;60912;48.968;10.124;2023-11-21T01:09:00;95943.53;;;9.41
71640;BMP280;60912;48.968;10.124;2023-11-21T01:11:25;95944.63;;;9.22
71640;BMP280;60912;48.968;10.124;2023-11-21T01:13:51;95943.34;;;9.08
71640;BMP280;60912;48.968;10.124;2023-11-21T01:16:17;95943.16;;;9.06
71640;BMP280;60912;48.968;10.124;2023-11-21T01:18:42;95941.13;;;9.14
71640;BMP280;60912;48.968;10.124;2023-11-21T01:21:08;95946.81;;;9.24
71640;BMP280;60912;48.968;10.124;2023-11-21T01:23:34;95949.03;;;9.25
71640;BMP280;60912;48.968;10.124;2023-11-21T01:26:00;95941.34;;;9.31
71640;BMP280;60912;48.968;10.124;2023-11-21T01:28:25;95938.78;;;9.41
71640;BMP280;60912;48.968;10.124;2023-11-21T01:30:51;95943.94;;;9.45
71640;BMP280;60912;48.968;10.124;2023-11-21T01:33:17;95934.00;;;9.42
71640;BMP280;60912;48.968;10.124;2023-11-21T01:35:42;95944.28;;;9.33
71640;BMP280;60912;48.968;10.124;2023-11-21T01:38:08;95932.19;;;9.36
71640;BMP280;60912;48.968;10.124;2023-11-21T01:40:34;95936.94;;;9.44
71640;BMP280;60912;48.968;10.124;2023-11-21T01:42:59;95937.09;;;9.38
71640;BMP280;60912;48.968;10.124;2023-11-21T01:45:25;95943.38;;;9.46
71640;BMP280;60912;48.968;10.124;2023-11-21T01:47:50;95934.72;;;9.50
71640;BMP280;60912;48.968;10.124;2023-11-21T01:50:16;95929.97;;;9.50
71640;BMP280;60912;48.968;10.124;2023-11-21T01:52:47;95920.81;;;9.40
71640;BMP280;60912;48.968;10.124;2023-11-21T01:55:15;95936.56;;;9.32
71640;BMP280;60912;48.968;10.124;2023-11-21T01:57:43;95927.06;;;9.33
71640;BMP280;60912;48.968;10.124;2023-11-21T02:00:09;95933.63;;;9.30
71640;BMP280;60912;48.968;10.124;2023-11-21T02:02:47;95934.16;;;9.28
71640;BMP280;60912;48.968;10.124;2023-11-21T02:05:16;95931.28;;;9.34
71640;BMP280;60912;48.968;10.124;2023-11-21T02:07:43;95926.69;;;9.36
71640;BMP280;60912;48.968;10.124;2023-11-21T02:10:10;95933.81;;;9.40
71640;BMP280;60912;48.968;10.124;2023-11-21T02:12:42;95934.94;;;9.44
71640;BMP280;60912;48.968;10.124;2023-11-21T02:15:13;95931.81;;;9.48
71640;BMP280;60912;48.968;10.124;2023-11-21T02:17:49;95927.44;;;9.45
71640;BMP280;60912;48.968;10.124;2023-11-21T02:20:17;95928.84;;;9.38
71640;BMP280;60912;48.968;10.124;2023-11-21T02:22:48;95927.06;;;9.33
71640;BMP280;60912;48.968;10.124;2023-11-21T02:25:14;95926.66;;;9.29
71640;BMP280;60912;48.968;10.124;2023-11-21T02:27:39;95929.97;;;9.27
71640;BMP280;60912;48.968;10.124;2023-11-21T02:30:05;95934.75;;;9.34
71640;BMP280;60912;48.968;10.124;2023-11-21T02:32:33;95935.84;;;9.31
71640;BMP280;60912;48.968;10.124;2023-11-21T02:34:59;95936.03;;;9.33
71640;BMP280;60912;48.968;10.124;2023-11-21T02:37:27;95933.63;;;9.37
71640;BMP280;60912;48.968;10.124;2023-11-21T02:39:53;95934.00;;;9.42
71640;BMP280;60912;48.968;10.124;2023-11-21T02:42:18;95933.28;;;9.33
71640;BMP280;60912;48.968;10.124;2023-11-21T02:44:44;95932.34;;;9.38
71640;BMP280;60912;48.968;10.124;2023-11-21T02:47:09;95929.63;;;9.46
71640;BMP280;60912;48.968;10.124;2023-11-21T02:49:34;95927.78;;;9.49
71640;BMP280;60912;48.968;10.124;2023-11-21T02:52:01;95929.06;;;9.48
71640;BMP280;60912;48.968;10.124;2023-11-21T02:54:26;95930.91;;;9.45
71640;BMP280;60912;48.968;10.124;2023-11-21T02:56:52;95927.78;;;9.49
71640;BMP280;60912;48.968;10.124;2023-11-21T02:59:17;95927.03;;;9.56
71640;BMP280;60912;48.968;10.124;2023-11-21T03:01:43;95924.84;;;9.62
71640;BMP280;60912;48.968;10.124;2023-11-21T03:04:08;95920.81;;;9.63
71640;BMP280;60912;48.968;10.124;2023-11-21T03:06:33;95918.94;;;9.65
71640;BMP280;60912;48.968;10.124;2023-11-21T03:08:59;95922.09;;;9.69
71640;BMP280;60912;48.968;10.124;2023-11-21T03:11:24;95921.88;;;9.75
71640;BMP280;60912;48.968;10.124;2023-11-21T03:13:50;95923.00;;;9.79
71640;BMP280;60912;48.968;10.124;2023-11-21T03:16:15;95924.09;;;9.84
71640;BMP280;60912;48.968;10.124;2023-11-21T03:18:41;95924.09;;;9.84
71640;BMP280;60912;48.968;10.124;2023-11-21T03:21:07;95923.53;;;9.78
71640;BMP280;60912;48.968;10.124;2023-11-21T03:23:34;95919.50;;;9.79
71640;BMP280;60912;48.968;10.124;2023-11-21T03:26:00;95916.00;;;9.78
71640;BMP280;60912;48.968;10.124;2023-11-21T03:28:26;95917.09;;;9.75
71640;BMP280;60912;48.968;10.124;2023-11-21T03:30:52;95917.84;;;9.76
71640;BMP280;60912;48.968;10.124;2023-11-21T03:33:17;95913.09;;;9.69
71640;BMP280;60912;48.968;10.124;2023-11-21T03:35:42;95908.88;;;9.68
71640;BMP280;60912;48.968;10.124;2023-11-21T03:38:10;95914.72;;;9.64
71640;BMP280;60912;48.968;10.124;2023-11-21T03:40:36;95916.03;;;9.56
71640;BMP280;60912;48.968;10.124;2023-11-21T03:43:01;95913.84;;;9.47
71640;BMP280;60912;48.968;10.124;2023-11-21T03:45:26;95916.03;;;9.41
71640;BMP280;60912;48.968;10.124;2023-11-21T03:47:52;95920.25;;;9.42
71640;BMP280;60912;48.968;10.124;2023-11-21T03:50:17;95909.06;;;9.40
71640;BMP280;60912;48.968;10.124;2023-11-21T03:52:42;95914.38;;;9.30
71640;BMP280;60912;48.968;10.124;2023-11-21T03:55:08;95918.59;;;9.31
71640;BMP280;60912;48.968;10.124;2023-11-21T03:57:35;95914.22;;;9.35
71640;BMP280;60912;48.968;10.124;2023-11-21T04:00:01;95916.94;;;9.51
71640;BMP280;60912;48.968;10.124;2023-11-21T04:02:26;95925.03;;;9.64
71640;BMP280;60912;48.968;10.124;2023-11-21T04:04:53;95918.78;;;9.71
71640;BMP280;60912;48.968;10.124;2023-11-21T04:07:18;95916.97;;;9.73
71640;BMP280;60912;48.968;10.124;2023-11-21T04:09:44;95923.19;;;9.74
71640;BMP280;60912;48.968;10.124;2023-11-21T04:12:09;95924.84;;;9.69
71640;BMP280;60912;48.968;10.124;2023-11-21T04:14:35;95918.78;;;9.63
71640;BMP280;60912;48.968;10.124;2023-11-21T04:17:00;95927.78;;;9.64
71640;BMP280;60912;48.968;10.124;2023-11-21T04:19:25;95927.41;;;9.60
71640;BMP280;60912;48.968;10.124;2023-11-21T04:21:51;95921.91;;;9.60
71640;BMP280;60912;48.968;10.124;2023-11-21T04:24:16;95918.22;;;9.65
71640;BMP280;60912;48.968;10.124;2023-11-21T04:26:41;95914.94;;;9.59
71640;BMP280;60912;48.968;10.124;2023-11-21T04:29:07;95926.66;;;9.52
71640;BMP280;60912;48.968;10.124;2023-11-21T04:31:32;95928.16;;;9.60
71640;BMP280;60912;48.968;10.124;2023-11-21T04:33:58;95929.78;;;9.56
71640;BMP280;60912;48.968;10.124;2023-11-21T04:36:23;95931.63;;;9.53
71640;BMP280;60912;48.968;10.124;2023-11-21T04:38:49;95931.25;;;9.57
71640;BMP280;60912;48.968;10.124;2023-11-21T04:41:14;95930.53;;;9.56
71640;BMP280;60912;48.968;10.124;2023-11-21T04:43:39;95942.47;;;9.44
71640;BMP280;60912;48.968;10.124;2023-11-21T04:46:05;95945.75;;;9.34
71640;BMP280;60912;48.968;10.124;2023-11-21T04:48:32;95936.22;;;9.35
71640;BMP280;60912;48.968;10.124;2023-11-21T04:50:57;95941.31;;;9.39
71640;BMP280;60912;48.968;10.124;2023-11-21T04:53:22;95944.47;;;9.43
71640;BMP280;60912;48.968;10.124;2023-11-21T04:55:48;95943.00;;;9.42
71640;BMP280;60912;48.968;10.124;2023-11-21T04:58:13;95946.28;;;9.41
71640;BMP280;60912;48.968;10.124;2023-11-21T05:00:39;95939.31;;;9.40
71640;BMP280;60912;48.968;10.124;2023-11-21T05:03:06;95946.09;;;9.38
71640;BMP280;60912;48.968;10.124;2023-11-21T05:05:32;95957.09;;;9.38
71640;BMP280;60912;48.968;10.124;2023-11-21T05:07:58;95959.31;;;9.40
71640;BMP280;60912;48.968;10.124;2023-11-21T05:10:24;95951.97;;;9.50
71640;BMP280;60912;48.968;10.124;2023-11-21T05:12:49;95960.78;;;9.56
71640;BMP280;60912;48.968;10.124;2023-11-21T05:15:16;95958.19;;;9.66
71640;BMP280;60912;48.968;10.124;2023-11-21T05:17:43;95968.84;;;9.77
71640;BMP280;60912;48.968;10.124;2023-11-21T05:20:13;95964.81;;;9.78
71640;BMP280;60912;48.968;10.124;2023-11-21T05:22:39;95970.66;;;9.74
71640;BMP280;60912;48.968;10.124;2023-11-21T05:25:05;95964.81;;;9.63
71640;BMP280;60912;48.968;10.124;2023-11-21T05:27:32;95965.19;;;9.59
71640;BMP280;60912;48.968;10.124;2023-11-21T05:29:58;95974.19;;;9.60
71640;BMP280;60912;48.968;10.124;2023-11-21T05:32:24;95975.47;;;9.59
71640;BMP280;60912;48.968;10.124;2023-11-21T05:34:49;95969.75;;;9.57
71640;BMP280;60912;48.968;10.124;2023-11-21T05:37:15;95979.47;;;9.65
71640;BMP280;60912;48.968;10.124;2023-11-21T05:39:40;95987.19;;;9.67
71640;BMP280;60912;48.968;10.124;2023-11-21T05:42:05;95977.28;;;9.64
71640;BMP280;60912;48.968;10.124;2023-11-21T05:44:31;95981.88;;;9.69
71640;BMP280;60912;48.968;10.124;2023-11-21T05:46:56;95988.28;;;9.64
71640;BMP280;60912;48.968;10.124;2023-11-21T05:49:23;95974.34;;;9.69
71640;BMP280;60912;48.968;10.124;2023-11-21T05:51:52;95982.06;;;9.71
71640;BMP280;60912;48.968;10.124;2023-11-21T05:54:19;95984.25;;;9.65
71640;BMP280;60912;48.968;10.124;2023-11-21T05:56:44;95984.63;;;9.54
71640;BMP280;60912;48.968;10.124;2023-11-21T05:59:09;95978.72;;;9.50
71640;BMP280;60912;48.968;10.124;2023-11-21T06:01:35;95984.97;;;9.50
71640;BMP280;60912;48.968;10.124;2023-11-21T06:04:04;95987.53;;;9.56
71640;BMP280;60912;48.968;10.124;2023-11-21T06:06:30;95989.75;;;9.57
71640;BMP280;60912;48.968;10.124;2023-11-21T06:08:56;95991.59;;;9.55
71640;BMP280;60912;48.968;10.124;2023-11-21T06:11:21;95991.97;;;9.59
71640;BMP280;60912;48.968;10.124;2023-11-21T06:13:47;95999.28;;;9.56
71640;BMP280;60912;48.968;10.124;2023-11-21T06:16:13;95990.09;;;9.38
71640;BMP280;60912;48.968;10.124;2023-11-21T06:18:41;96000.72;;;9.27
71640;BMP280;60912;48.968;10.124;2023-11-21T06:21:09;95998.72;;;9.27
71640;BMP280;60912;48.968;10.124;2023-11-21T06:23:35;96002.19;;;9.28
71640;BMP280;60912;48.968;10.124;2023-11-21T06:26:00;96005.84;;;9.30
71640;BMP280;60912;48.968;10.124;2023-11-21T06:28:26;95999.63;;;9.30
71640;BMP280;60912;48.968;10.124;2023-11-21T06:30:51;95999.28;;;9.33
71640;BMP280;60912;48.968;10.124;2023-11-21T06:33:18;96007.31;;;9.31
71640;BMP280;60912;48.968;10.124;2023-11-21T06:35:43;96006.59;;;9.31
71640;BMP280;60912;48.968;10.124;2023-11-21T06:38:09;96010.81;;;9.32
71640;BMP280;60912;48.968;10.124;2023-11-21T06:40:35;96003.84;;;9.38
71640;BMP280;60912;48.968;10.124;2023-11-21T06:43:00;96011.94;;;9.44
71640;BMP280;60912;48.968;10.124;2023-11-21T06:45:26;96019.09;;;9.47
71640;BMP280;60912;48.968;10.124;2023-11-21T06:47:51;96020.56;;;9.48
71640;BMP280;60912;48.968;10.124;2023-11-21T06:50:16;96014.50;;;9.34
71640;BMP280;60912;48.968;10.124;2023-11-21T06:52:42;96023.81;;;9.39
71640;BMP280;60912;48.968;10.124;2023-11-21T06:55:08;96032.28;;;9.41
71640;BMP280;60912;48.968;10.124;2023-11-21T06:57:34;96025.66;;;9.36
71640;BMP280;60912;48.968;10.124;2023-11-21T06:59:59;96036.50;;;9.34
71640;BMP280;60912;48.968;10.124;2023-11-21T07:02:25;96041.78;;;9.40
71640;BMP280;60912;48.968;10.124;2023-11-21T07:04:50;96039.59;;;9.38
71640;BMP280;60912;48.968;10.124;2023-11-21T07:07:15;96045.81;;;9.39
71640;BMP280;60912;48.968;10.124;2023-11-21T07:09:41;96046.22;;;9.43
71640;BMP280;60912;48.968;10.124;2023-11-21T07:12:07;96052.44;;;9.51
71640;BMP280;60912;48.968;10.124;2023-11-21T07:14:35;96061.09;;;9.55
71640;BMP280;60912;48.968;10.124;2023-11-21T07:17:02;96062.53;;;9.56
71640;BMP280;60912;48.968;10.124;2023-11-21T07:19:27;96057.41;;;9.53
71640;BMP280;60912;48.968;10.124;2023-11-21T07:21:53;96066.94;;;9.44
71640;BMP280;60912;48.968;10.124;2023-11-21T07:24:18;96069.69;;;9.52
71640;BMP280;60912;48.968;10.124;2023-11-21T07:26:44;96075.19;;;9.52
71640;BMP280;60912;48.968;10.124;2023-11-21T07:29:09;96074.13;;;9.55
71640;BMP280;60912;48.968;10.124;2023-11-21T07:31:36;96073.38;;;9.62
71640;BMP280;60912;48.968;10.124;2023-11-21T07:34:03;96078.88;;;9.62
71640;BMP280;60912;48.968;10.124;2023-11-21T07:36:28;96082.16;;;9.45
71640;BMP280;60912;48.968;10.124;2023-11-21T07:38:54;96081.81;;;9.49
71640;BMP280;60912;48.968;10.124;2023-11-21T07:41:19;96090.41;;;9.53
71640;BMP280;60912;48.968;10.124;2023-11-21T07:43:46;96090.25;;;9.58
71640;BMP280;60912;48.968;10.124;2023-11-21T07:46:12;96092.09;;;9.63
71640;BMP280;60912;48.968;10.124;2023-11-21T07:48:41;96088.09;;;9.79
71640;BMP280;60912;48.968;10.124;2023-11-21T07:51:08;96093.03;;;9.89
71640;BMP280;60912;48.968;10.124;2023-11-21T07:53:34;96091.38;;;9.78
71640;BMP280;60912;48.968;10.124;2023-11-21T07:56:04;96090.63;;;9.77
71640;BMP280;60912;48.968;10.124;2023-11-21T07:58:30;96090.31;;;9.81
71640;BMP280;60912;48.968;10.124;2023-11-21T08:00:56;96089.00;;;9.90
71640;BMP280;60912;48.968;10.124;2023-11-21T08:03:21;96094.34;;;10.03
71640;BMP280;60912;48.968;10.124;2023-11-21T08:05:47;96093.97;;;10.14
71640;BMP280;60912;48.968;10.124;2023-11-21T08:08:12;96091.41;;;10.24
71640;BMP280;60912;48.968;10.124;2023-11-21T08:10:37;96093.03;;;10.27
71640;BMP280;60912;48.968;10.124;2023-11-21T08:13:04;96095.59;;;10.17
71640;BMP280;60912;48.968;10.124;2023-11-21T08:15:30;96093.44;;;10.23
71640;BMP280;60912;48.968;10.124;2023-11-21T08:17:57;96095.41;;;9.92
71640;BMP280;60912;48.968;10.124;2023-11-21T08:20:24;96102.94;;;9.84
71640;BMP280;60912;48.968;10.124;2023-11-21T08:22:50;96101.31;;;9.81
71640;BMP280;60912;48.968;10.124;2023-11-21T08:25:16;96084.81;;;9.96
71640;BMP280;60912;48.968;10.124;2023-11-21T08:27:45;96101.66;;;9.85
71640;BMP280;60912;48.968;10.124;2023-11-21T08:30:10;96096.16;;;10.00
71640;BMP280;60912;48.968;10.124;2023-11-21T08:32:37;96095.09;;;10.11
71640;BMP280;60912;48.968;10.124;2023-11-21T08:35:02;96097.09;;;10.10
71640;BMP280;60912;48.968;10.124;2023-11-21T08:37:28;96108.84;;;10.03
71640;BMP280;60912;48.968;10.124;2023-11-21T08:39:57;96111.25;;;9.99
71640;BMP280;60912;48.968;10.124;2023-11-21T08:42:22;96117.06;;;9.88
71640;BMP280;60912;48.968;10.124;2023-11-21T08:44:48;96116.88;;;10.01
71640;BMP280;60912;48.968;10.124;2023-11-21T08:47:13;96126.63;;;10.02
71640;BMP280;60912;48.968;10.124;2023-11-21T08:49:39;96123.69;;;10.00
71640;BMP280;60912;48.968;10.124;2023-11-21T08:52:04;96126.47;;;10.15
71640;BMP280;60912;48.968;10.124;2023-11-21T08:54:30;96124.06;;;10.35
71640;BMP280;60912;48.968;10.124;2023-11-21T08:56:56;96125.00;;;10.37
71640;BMP280;60912;48.968;10.124;2023-11-21T08:59:23;96126.44;;;10.38
71640;BMP280;60912;48.968;10.124;2023-11-21T09:01:49;96134.19;;;10.47
71640;BMP280;60912;48.968;10.124;2023-11-21T09:04:14;96148.13;;;10.57
71640;BMP280;60912;48.968;10.124;2023-11-21T09:06:39;96141.84;;;10.64
71640;BMP280;60912;48.968;10.124;2023-11-21T09:09:05;96146.09;;;10.65
71640;BMP280;60912;48.968;10.124;2023-11-21T09:11:34;96143.88;;;10.71
71640;BMP280;60912;48.968;10.124;2023-11-21T09:14:00;96145.69;;;10.84
71640;BMP280;60912;48.968;10.124;2023-11-21T09:16:26;96140.13;;;10.91
71640;BMP280;60912;48.968;10.124;2023-11-21T09:18:51;96133.75;;;10.81
71640;BMP280;60912;48.968;10.124;2023-11-21T09:21:16;96133.56;;;10.87
71640;BMP280;60912;48.968;10.124;2023-11-21T09:23:44;96141.56;;;11.07
71640;BMP280;60912;48.968;10.124;2023-11-21T09:26:09;96142.25;;;11.16
71640;BMP280;60912;48.968;10.124;2023-11-21T09:28:35;96148.09;;;11.35
71640;BMP280;60912;48.968;10.124;2023-11-21T09:31:03;96157.97;;;11.45
71640;BMP280;60912;48.968;10.124;2023-11-21T09:33:30;96158.94;;;11.73
71640;BMP280;60912;48.968;10.124;2023-11-21T09:35:56;96152.88;;;11.99
71640;BMP280;60912;48.968;10.124;2023-11-21T09:38:22;96153.81;;;12.19
71640;BMP280;60912;48.968;10.124;2023-11-21T09:40:47;96155.66;;;12.41
71640;BMP280;60912;48.968;10.124;2023-11-21T09:43:16;96155.09;;;12.42
71640;BMP280;60912;48.968;10.124;2023-11-21T09:45:45;96151.41;;;12.23
71640;BMP280;60912;48.968;10.124;2023-11-21T09:48:11;96154.81;;;11.81
71640;BMP280;60912;48.968;10.124;2023-11-21T09:50:37;96153.38;;;11.48
71640;BMP280;60912;48.968;10.124;2023-11-21T09:53:21;96158.00;;;11.38
71640;BMP280;60912;48.968;10.124;2023-11-21T09:55:53;96162.41;;;11.41
71640;BMP280;60912;48.968;10.124;2023-11-21T09:58:19;96165.63;;;11.62
71640;BMP280;60912;48.968;10.124;2023-11-21T10:00:46;96167.19;;;11.80
71640;BMP280;60912;48.968;10.124;2023-11-21T10:03:12;96172.47;;;11.86
71640;BMP280;60912;48.968;10.124;2023-11-21T10:05:39;96170.09;;;11.82
71640;BMP280;60912;48.968;10.124;2023-11-21T10:08:09;96172.09;;;11.57
71640;BMP280;60912;48.968;10.124;2023-11-21T10:10:43;96169.09;;;11.23
71640;BMP280;60912;48.968;10.124;2023-11-21T10:13:13;96167.09;;;11.16
71640;BMP280;60912;48.968;10.124;2023-11-21T10:15:42;96167.97;;;11.26
71640;BMP280;60912;48.968;10.124;2023-11-21T10:18:14;96168.16;;;11.28
71640;BMP280;60912;48.968;10.124;2023-11-21T10:20:40;96160.41;;;11.34
71640;BMP280;60912;48.968;10.124;2023-11-21T10:23:05;96162.88;;;11.54
71640;BMP280;60912;48.968;10.124;2023-11-21T10:25:32;96160.47;;;11.59
71640;BMP280;60912;48.968;10.124;2023-11-21T10:28:01;96164.50;;;11.65
71640;BMP280;60912;48.968;10.124;2023-11-21T10:30:45;96165.50;;;11.85
71640;BMP280;60912;48.968;10.124;2023-11-21T10:33:10;96160.91;;;12.05
71640;BMP280;60912;48.968;10.124;2023-11-21T10:38:05;96169.53;;;11.84
71640;BMP280;60912;48.968;10.124;2023-11-21T10:40:30;96173.13;;;11.69
71640;BMP280;60912;48.968;10.124;2023-11-21T10:43:06;96172.25;;;11.59
71640;BMP280;60912;48.968;10.124;2023-11-21T10:45:31;96175.09;;;11.76
71640;BMP280;60912;48.968;10.124;2023-11-21T10:47:56;96176.06;;;11.71
71640;BMP280;60912;48.968;10.124;2023-11-21T10:50:23;96176.47;;;11.60
71640;BMP280;60912;48.968;10.124;2023-11-21T10:52:48;96174.72;;;12.05
71640;BMP280;60912;48.968;10.124;2023-11-21T10:55:18;96172.75;;;12.47
71640;BMP280;60912;48.968;10.124;2023-11-21T10:57:48;96175.09;;;12.75
71640;BMP280;60912;48.968;10.124;2023-11-21T11:00:16;96177.59;;;12.81
71640;BMP280;60912;48.968;10.124;2023-11-21T11:02:41;96175.94;;;12.61
71640;BMP280;60912;48.968;10.124;2023-11-21T11:05:07;96175.25;;;12.53
71640;BMP280;60912;48.968;10.124;2023-11-21T11:07:38;96174.97;;;12.49
71640;BMP280;60912;48.968;10.124;2023-11-21T11:10:08;96177.66;;;12.31
71640;BMP280;60912;48.968;10.124;2023-11-21T11:12:39;96182.13;;;12.27
71640;BMP280;60912;48.968;10.124;2023-11-21T11:15:05;96176.03;;;12.28
71640;BMP280;60912;48.968;10.124;2023-11-21T11:17:31;96175.84;;;12.09
71640;BMP280;60912;48.968;10.124;2023-11-21T11:19:58;96167.56;;;12.02
71640;BMP280;60912;48.968;10.124;2023-11-21T11:22:37;96171.28;;;11.96
71640;BMP280;60912;48.968;10.124;2023-11-21T11:25:27;96172.88;;;12.07
71640;BMP280;60912;48.968;10.124;2023-11-21T11:28:07;96178.91;;;11.88
71640;BMP280;60912;48.968;10.124;2023-11-21T11:33:42;96173.03;;;11.84
71640;BMP280;60912;48.968;10.124;2023-11-21T11:36:25;96167.78;;;11.71
71640;BMP280;60912;48.968;10.124;2023-11-21T11:38:52;96165.28;;;11.58
71640;BMP280;60912;48.968;10.124;2023-11-21T11:41:29;96173.47;;;11.73
71640;BMP280;60912;48.968;10.124;2023-11-21T11:43:55;96176.84;;;11.89
71640;BMP280;60912;48.968;10.124;2023-11-21T11:46:40;96177.19;;;12.01
71640;BMP280;60912;48.968;10.124;2023-11-21T11:49:06;96173.44;;;12.06
71640;BMP280;60912;48.968;10.124;2023-11-21T11:51:33;96182.47;;;12.06
71640;BMP280;60912;48.968;10.124;2023-11-21T11:54:01;96171.97;;;12.05
71640;BMP280;60912;48.968;10.124;2023-11-21T11:56:31;96175.72;;;12.00
71640;BMP280;60912;48.968;10.124;2023-11-21T11:59:00;96172.69;;;12.05
71640;BMP280;60912;48.968;10.124;2023-11-21T12:01:28;96173.78;;;12.10
71640;BMP280;60912;48.968;10.124;2023-11-21T12:06:45;96172.03;;;11.97
71640;BMP280;60912;48.968;10.124;2023-11-21T12:09:31;96169.22;;;12.05
71640;BMP280;60912;48.968;10.124;2023-11-21T12:11:58;96171.75;;;12.10
71640;BMP280;60912;48.968;10.124;2023-11-21T12:14:23;96182.53;;;11.98
71640;BMP280;60912;48.968;10.124;2023-11-21T12:16:49;96185.44;;;11.68
71640;BMP280;60912;48.968;10.124;2023-11-21T12:19:14;96187.41;;;11.43
71640;BMP280;60912;48.968;10.124;2023-11-21T12:21:40;96193.53;;;11.34
71640;BMP280;60912;48.968;10.124;2023-11-21T12:24:13;96179.59;;;11.17
71640;BMP280;60912;48.968;10.124;2023-11-21T12:26:40;96190.88;;;10.96
71640;BMP280;60912;48.968;10.124;2023-11-21T12:29:06;96194.72;;;10.93
71640;BMP280;60912;48.968;10.124;2023-11-21T12:31:33;96195.66;;;10.95
71640;BMP280;60912;48.968;10.124;2023-11-21T12:33:59;96198.22;;;10.93
71640;BMP280;60912;48.968;10.124;2023-11-21T12:36:25;96189.00;;;10.91
71640;BMP280;60912;48.968;10.124;2023-11-21T12:38:57;96193.09;;;10.90
71640;BMP280;60912;48.968;10.124;2023-11-21T12:41:22;96196.78;;;10.85
71640;BMP280;60912;48.968;10.124;2023-11-21T12:43:48;96207.41;;;10.88
71640;BMP280;60912;48.968;10.124;2023-11-21T12:46:13;96205.22;;;10.87
71640;BMP280;60912;48.968;10.124;2023-11-21T12:48:44;96213.66;;;10.96
71640;BMP280;60912;48.968;10.124;2023-11-21T12:51:11;96210.91;;;10.96
71640;BMP280;60912;48.968;10.124;2023-11-21T12:53:40;96214.53;;;11.06
71640;BMP280;60912;48.968;10.124;2023-11-21T12:56:15;96210.66;;;11.17
71640;BMP280;60912;48.968;10.124;2023-11-21T12:58:44;96204.41;;;11.24
71640;BMP280;60912;48.968;10.124;2023-11-21T13:01:13;96212.09;;;11.26
71640;BMP280;60912;48.968;10.124;2023-11-21T13:03:43;96212.09;;;11.26
71640;BMP280;60912;48.968;10.124;2023-11-21T13:06:10;96215.78;;;11.28
71640;BMP280;60912;48.968;10.124;2023-11-21T13:08:37;96209.88;;;11.32
71640;BMP280;60912;48.968;10.124;2023-11-21T13:11:04;96214.66;;;11.31
71640;BMP280;60912;48.968;10.124;2023-11-21T13:13:34;96213.19;;;11.30
71640;BMP280;60912;48.968;10.124;2023-11-21T13:16:01;96212.06;;;11.41
71640;BMP280;60912;48.968;10.124;2023-11-21T13:18:29;96217.34;;;11.54
71640;BMP280;60912;48.968;10.124;2023-11-21T13:20:58;96209.78;;;11.54
71640;BMP280;60912;48.968;10.124;2023-11-21T13:23:24;96214.06;;;11.48
71640;BMP280;60912;48.968;10.124;2023-11-21T13:25:51;96216.53;;;11.29
71640;BMP280;60912;48.968;10.124;2023-11-21T13:28:18;96217.28;;;11.22
71640;BMP280;60912;48.968;10.124;2023-11-21T13:30:51;96226.47;;;11.24
71640;BMP280;60912;48.968;10.124;2023-11-21T13:33:21;96231.47;;;11.11
71640;BMP280;60912;48.968;10.124;2023-11-21T13:35:54;96234.00;;;11.24
71640;BMP280;60912;48.968;10.124;2023-11-21T13:38:24;96233.25;;;11.31
71640;BMP280;60912;48.968;10.124;2023-11-21T13:40:52;96239.88;;;11.35
71640;BMP280;60912;48.968;10.124;2023-11-21T13:46:04;96233.06;;;11.29
71640;BMP280;60912;48.968;10.124;2023-11-21T13:48:38;96236.03;;;11.16
71640;BMP280;60912;48.968;10.124;2023-11-21T13:51:18;96238.63;;;11.06
71640;BMP280;60912;48.968;10.124;2023-11-21T13:53:59;96247.47;;;11.12
71640;BMP280;60912;48.968;10.124;2023-11-21T13:56:48;96258.47;;;11.20
71640;BMP280;60912;48.968;10.124;2023-11-21T13:59:24;96261.06;;;11.10
71640;BMP280;60912;48.968;10.124;2023-11-21T14:01:56;96249.09;;;11.07
71640;BMP280;60912;48.968;10.124;2023-11-21T14:04:25;96250.97;;;10.90
71640;BMP280;60912;48.968;10.124;2023-11-21T14:07:11;96250.41;;;10.76
71640;BMP280;60912;48.968;10.124;2023-11-21T14:09:52;96256.66;;;10.69
71640;BMP280;60912;48.968;10.124;2023-11-21T14:12:21;96263.66;;;10.70
71640;BMP280;60912;48.968;10.124;2023-11-21T14:14:57;96273.94;;;10.70